Time;durP1;ratioP1;P1;durP2;ratioP2;P2;SDS_P1;SDS_P2;PMS_P1;PMS_P2;Temp;Humidity;BMP_temperature;BMP_pressure;BME280_temperature;BME280_humidity;BME280_pressure;Samples;Min_cycle;Max_cycle;Signal;HPM_P1;HPM_P2
2021/04/23 00:01:53;;;;;;;16.75;5.03;;;;;;;;;;5077619;28;20067;-75
2021/04/23 00:04:20;;;;;;;15.07;6.32;;;;;;;;;;5081717;28;20028;-75
2021/04/23 00:06:50;;;;;;;12.60;5.30;;;;;;;;;;5079858;28;20037;-75
2021/04/23 00:09:18;;;;;;;16.73;5.17;;;;;;;;;;5075689;28;20032;-75
2021/04/23 00:11:50;;;;;;;19.75;5.60;;;;;;;;;;5088504;28;20525;-75
2021/04/23 00:14:18;;;;;;;15.35;5.50;;;;;;;;;;5082250;28;20068;-75
2021/04/23 00:16:44;;;;;;;13.88;4.93;;;;;;;;;;5084756;28;20066;-74
2021/04/23 00:19:12;;;;;;;14.18;4.45;;;;;;;;;;5087791;28;20403;-75
2021/04/23 00:21:39;;;;;;;18.45;4.72;;;;;;;;;;5085141;28;20020;-75
2021/04/23 00:24:06;;;;;;;17.88;5.45;;;;;;;;;;5085241;28;20021;-74
2021/04/23 00:26:32;;;;;;;15.00;6.05;;;;;;;;;;5089938;28;20032;-75
2021/04/23 00:28:58;;;;;;;17.88;5.70;;;;;;;;;;5087936;28;20012;-75
2021/04/23 00:31:25;;;;;;;18.02;5.80;;;;;;;;;;5088763;28;20035;-75
2021/04/23 00:33:51;;;;;;;16.85;6.07;;;;;;;;;;5084080;28;20031;-75
2021/04/23 00:36:17;;;;;;;21.58;6.13;;;;;;;;;;5092924;28;20094;-75
2021/04/23 00:38:43;;;;;;;19.98;6.25;;;;;;;;;;5087138;28;20084;-75
2021/04/23 00:41:27;;;;;;;16.33;5.07;;;;;;;;;;5083240;28;20043;-75
2021/04/23 00:43:57;;;;;;;16.48;4.95;;;;;;;;;;5083107;28;20047;-75
2021/04/23 00:46:25;;;;;;;12.95;6.20;;;;;;;;;;5084032;28;20075;-75
2021/04/23 00:48:52;;;;;;;17.58;5.70;;;;;;;;;;5087269;28;20028;-75
2021/04/23 00:51:23;;;;;;;12.13;5.30;;;;;;;;;;5089468;28;20047;-75
2021/04/23 00:53:53;;;;;;;18.67;6.13;;;;;;;;;;5090113;28;20106;-75
2021/04/23 00:56:22;;;;;;;16.45;5.60;;;;;;;;;;5090002;28;20032;-75
2021/04/23 00:58:49;;;;;;;16.42;5.97;;;;;;;;;;5076522;28;20039;-75
2021/04/23 01:01:26;;;;;;;12.90;4.60;;;;;;;;;;5080300;28;20024;-75
2021/04/23 01:03:53;;;;;;;16.45;4.82;;;;;;;;;;5084365;28;20040;-75
2021/04/23 01:06:20;;;;;;;18.65;5.57;;;;;;;;;;5087680;28;20043;-75
2021/04/23 01:08:47;;;;;;;15.25;4.70;;;;;;;;;;5086051;28;20021;-75
2021/04/23 01:11:14;;;;;;;16.67;4.57;;;;;;;;;;5080747;28;20032;-75
2021/04/23 01:13:41;;;;;;;21.85;4.85;;;;;;;;;;5082641;28;20505;-75
2021/04/23 01:16:15;;;;;;;17.20;4.72;;;;;;;;;;5087074;28;20028;-75
2021/04/23 01:18:42;;;;;;;19.75;4.90;;;;;;;;;;5084865;28;20027;-74
2021/04/23 01:21:12;;;;;;;18.20;4.35;;;;;;;;;;5087181;28;20048;-74
2021/04/23 01:23:39;;;;;;;17.27;4.72;;;;;;;;;;5088369;28;20414;-74
2021/04/23 01:26:06;;;;;;;15.38;5.60;;;;;;;;;;5086637;28;20101;-74
2021/04/23 01:28:33;;;;;;;18.02;5.15;;;;;;;;;;5078843;28;20032;-74
2021/04/23 01:31:00;;;;;;;18.75;5.72;;;;;;;;;;5082025;28;20070;-74
2021/04/23 01:33:26;;;;;;;14.40;4.30;;;;;;;;;;5082324;28;20024;-74
2021/04/23 01:35:53;;;;;;;14.40;4.47;;;;;;;;;;5084607;28;20028;-74
2021/04/23 01:38:19;;;;;;;13.20;4.32;;;;;;;;;;5086600;28;20047;-73
2021/04/23 01:40:46;;;;;;;11.80;4.15;;;;;;;;;;5085830;28;20055;-74
2021/04/23 01:43:13;;;;;;;14.07;4.30;;;;;;;;;;5085602;28;20139;-74
2021/04/23 01:45:39;;;;;;;12.32;4.15;;;;;;;;;;5084470;28;20020;-74
2021/04/23 01:48:06;;;;;;;12.60;4.38;;;;;;;;;;5083967;28;20512;-74
2021/04/23 01:50:32;;;;;;;14.30;4.75;;;;;;;;;;5076327;28;20028;-74
2021/04/23 01:52:59;;;;;;;14.25;4.72;;;;;;;;;;5086158;28;20032;-74
2021/04/23 01:55:25;;;;;;;15.38;4.72;;;;;;;;;;5088765;28;20046;-74
2021/04/23 01:57:51;;;;;;;12.55;4.80;;;;;;;;;;5087413;28;20031;-74
2021/04/23 02:00:20;;;;;;;13.63;4.35;;;;;;;;;;5086078;28;20032;-74
2021/04/23 02:02:46;;;;;;;13.02;4.38;;;;;;;;;;5077394;28;20016;-74
2021/04/23 02:05:13;;;;;;;18.73;4.55;;;;;;;;;;5082399;28;20028;-74
2021/04/23 02:07:39;;;;;;;10.27;4.25;;;;;;;;;;5082641;28;20016;-73
2021/04/23 02:10:10;;;;;;;13.90;4.30;;;;;;;;;;5089777;28;20055;-74
2021/04/23 02:12:36;;;;;;;14.32;4.60;;;;;;;;;;5078779;28;20121;-74
2021/04/23 02:15:06;;;;;;;15.68;5.85;;;;;;;;;;5082560;28;20032;-74
2021/04/23 02:17:32;;;;;;;13.93;5.43;;;;;;;;;;5081323;28;20092;-74
2021/04/23 02:19:58;;;;;;;12.27;4.18;;;;;;;;;;5093472;28;20055;-74
2021/04/23 02:22:24;;;;;;;19.27;4.55;;;;;;;;;;5083331;28;20052;-75
2021/04/23 02:24:50;;;;;;;13.80;4.75;;;;;;;;;;5081499;28;20029;-74
2021/04/23 02:27:16;;;;;;;25.17;5.75;;;;;;;;;;5086168;28;20050;-74
2021/04/23 02:29:42;;;;;;;11.90;4.57;;;;;;;;;;5075140;28;20027;-74
2021/04/23 02:32:08;;;;;;;16.85;5.75;;;;;;;;;;5084841;28;20024;-74
2021/04/23 02:34:34;;;;;;;13.68;4.47;;;;;;;;;;5076599;28;20031;-74
2021/04/23 02:37:00;;;;;;;15.05;5.15;;;;;;;;;;5078628;28;20035;-74
2021/04/23 02:39:26;;;;;;;12.75;4.75;;;;;;;;;;5083564;28;20071;-74
2021/04/23 02:41:54;;;;;;;13.27;4.30;;;;;;;;;;5082570;28;20021;-74
2021/04/23 02:44:20;;;;;;;17.90;4.72;;;;;;;;;;5082848;28;20036;-74
2021/04/23 02:46:46;;;;;;;12.18;4.40;;;;;;;;;;5086500;28;20016;-74
2021/04/23 02:49:13;;;;;;;17.05;5.80;;;;;;;;;;5073625;28;20020;-74
2021/04/23 02:51:40;;;;;;;15.32;5.60;;;;;;;;;;5080949;28;20024;-74
2021/04/23 02:54:06;;;;;;;13.50;4.60;;;;;;;;;;5083603;28;20089;-74
2021/04/23 02:56:33;;;;;;;17.52;5.20;;;;;;;;;;5084096;28;20040;-74
2021/04/23 02:59:00;;;;;;;15.82;4.90;;;;;;;;;;5076988;28;20025;-74
2021/04/23 03:01:28;;;;;;;14.15;4.53;;;;;;;;;;5080266;28;20024;-74
2021/04/23 03:03:54;;;;;;;13.63;5.70;;;;;;;;;;5083572;28;20043;-74
2021/04/23 03:06:21;;;;;;;12.43;4.45;;;;;;;;;;5082533;28;20440;-74
2021/04/23 03:08:47;;;;;;;18.60;5.47;;;;;;;;;;5082626;28;20028;-74
2021/04/23 03:11:17;;;;;;;13.25;4.72;;;;;;;;;;5076921;28;20008;-74
2021/04/23 03:13:45;;;;;;;20.90;6.10;;;;;;;;;;5081330;28;20008;-74
2021/04/23 03:16:11;;;;;;;14.10;4.90;;;;;;;;;;5079205;28;20025;-73
2021/04/23 03:18:39;;;;;;;17.08;5.10;;;;;;;;;;5076012;28;20027;-74
2021/04/23 03:21:05;;;;;;;19.95;4.93;;;;;;;;;;5083309;28;20040;-74
2021/04/23 03:23:32;;;;;;;16.13;6.97;;;;;;;;;;5082304;28;20097;-74
2021/04/23 03:26:02;;;;;;;23.10;6.05;;;;;;;;;;5085187;28;20024;-74
2021/04/23 03:28:28;;;;;;;15.85;5.63;;;;;;;;;;5082586;28;20020;-74
2021/04/23 03:30:55;;;;;;;13.80;5.80;;;;;;;;;;5078246;28;20059;-74
2021/04/23 03:33:21;;;;;;;16.25;6.78;;;;;;;;;;5072514;28;20040;-74
2021/04/23 03:35:49;;;;;;;11.27;4.88;;;;;;;;;;5082008;28;20020;-74
2021/04/23 03:38:15;;;;;;;16.13;5.53;;;;;;;;;;5086502;28;20117;-73
2021/04/23 03:40:42;;;;;;;18.52;6.13;;;;;;;;;;5078858;28;20491;-74
2021/04/23 03:43:08;;;;;;;16.42;5.57;;;;;;;;;;5081160;28;20029;-74
2021/04/23 03:45:34;;;;;;;16.10;5.57;;;;;;;;;;5084532;28;20442;-74
2021/04/23 03:48:01;;;;;;;17.58;5.97;;;;;;;;;;5088850;28;20024;-74
2021/04/23 03:50:28;;;;;;;17.00;4.53;;;;;;;;;;5081836;28;20028;-74
2021/04/23 03:52:55;;;;;;;17.15;6.70;;;;;;;;;;5080934;28;20107;-74
2021/04/23 03:55:23;;;;;;;11.82;4.78;;;;;;;;;;5085652;28;20032;-74
2021/04/23 03:57:50;;;;;;;14.60;5.00;;;;;;;;;;5085410;28;20046;-73
2021/04/23 04:00:18;;;;;;;12.65;5.03;;;;;;;;;;5076767;28;20028;-74
2021/04/23 04:02:44;;;;;;;14.30;4.75;;;;;;;;;;5086156;28;20104;-74
2021/04/23 04:05:10;;;;;;;22.33;5.63;;;;;;;;;;5088844;28;20071;-74
2021/04/23 04:07:36;;;;;;;13.57;5.00;;;;;;;;;;5082547;28;20028;-74
2021/04/23 04:10:05;;;;;;;12.95;4.72;;;;;;;;;;5077165;28;20047;-74
2021/04/23 04:12:31;;;;;;;15.40;5.00;;;;;;;;;;5088857;28;20035;-74
2021/04/23 04:14:57;;;;;;;14.82;5.32;;;;;;;;;;5083573;28;20036;-73
2021/04/23 04:17:23;;;;;;;11.88;5.20;;;;;;;;;;5091588;28;20028;-74
2021/04/23 04:19:49;;;;;;;21.58;4.70;;;;;;;;;;5081526;28;20076;-74
2021/04/23 04:22:15;;;;;;;13.52;4.32;;;;;;;;;;5081479;28;20017;-74
2021/04/23 04:24:42;;;;;;;16.63;4.70;;;;;;;;;;5085158;28;20652;-74
2021/04/23 04:27:08;;;;;;;12.43;4.35;;;;;;;;;;5085762;28;20635;-74
2021/04/23 04:29:34;;;;;;;15.75;5.10;;;;;;;;;;5087073;28;20028;-74
2021/04/23 04:32:00;;;;;;;20.92;6.05;;;;;;;;;;5090401;28;20036;-73
2021/04/23 04:34:26;;;;;;;19.52;4.65;;;;;;;;;;5087239;28;20028;-74
2021/04/23 04:36:52;;;;;;;13.20;4.82;;;;;;;;;;5084631;28;20031;-75
2021/04/23 04:39:19;;;;;;;15.95;4.85;;;;;;;;;;5083052;28;20029;-74
2021/04/23 04:41:46;;;;;;;13.75;5.38;;;;;;;;;;5086052;28;20498;-74
2021/04/23 04:44:12;;;;;;;13.30;5.18;;;;;;;;;;5088283;28;20064;-74
2021/04/23 04:46:38;;;;;;;12.93;4.68;;;;;;;;;;5089428;28;20035;-74
2021/04/23 04:49:04;;;;;;;13.55;4.53;;;;;;;;;;5088349;28;20039;-74
2021/04/23 04:51:30;;;;;;;13.98;4.38;;;;;;;;;;5092433;28;20478;-74
2021/04/23 04:53:56;;;;;;;12.80;4.68;;;;;;;;;;5088166;28;20126;-74
2021/04/23 04:56:22;;;;;;;15.27;5.88;;;;;;;;;;5087572;28;20137;-73
2021/04/23 04:58:48;;;;;;;18.45;5.50;;;;;;;;;;5088072;28;20410;-73
2021/04/23 05:01:17;;;;;;;12.85;5.20;;;;;;;;;;5090619;28;20012;-73
2021/04/23 05:03:43;;;;;;;17.80;6.60;;;;;;;;;;5077493;28;20127;-73
2021/04/23 05:06:11;;;;;;;14.52;5.35;;;;;;;;;;5083946;28;20028;-73
2021/04/23 05:08:37;;;;;;;11.95;5.32;;;;;;;;;;5089873;28;20048;-73
2021/04/23 05:11:03;;;;;;;17.50;4.70;;;;;;;;;;5079794;28;20028;-73
2021/04/23 05:13:29;;;;;;;12.18;4.05;;;;;;;;;;5089139;28;20024;-73
2021/04/23 05:15:55;;;;;;;15.27;4.82;;;;;;;;;;5078595;28;20070;-73
2021/04/23 05:18:22;;;;;;;20.23;5.43;;;;;;;;;;5078079;28;20025;-74
2021/04/23 05:20:48;;;;;;;12.35;4.78;;;;;;;;;;5084275;28;20067;-74
2021/04/23 05:23:14;;;;;;;14.07;5.43;;;;;;;;;;5085279;28;20043;-74
2021/04/23 05:25:40;;;;;;;13.13;4.78;;;;;;;;;;5088846;28;20016;-74
2021/04/23 05:28:06;;;;;;;11.95;4.30;;;;;;;;;;5084009;28;20078;-74
2021/04/23 05:30:33;;;;;;;13.73;4.60;;;;;;;;;;5086524;28;20031;-74
2021/04/23 05:33:01;;;;;;;15.75;4.95;;;;;;;;;;5082374;28;20066;-74
2021/04/23 05:35:28;;;;;;;14.00;4.38;;;;;;;;;;5076360;28;20078;-74
2021/04/23 05:37:54;;;;;;;13.60;5.47;;;;;;;;;;5086266;28;20058;-74
2021/04/23 05:40:24;;;;;;;14.07;4.45;;;;;;;;;;5088192;28;20114;-74
2021/04/23 05:42:50;;;;;;;12.10;5.72;;;;;;;;;;5088194;28;20044;-74
2021/04/23 05:45:17;;;;;;;13.38;4.75;;;;;;;;;;5086366;28;20027;-74
2021/04/23 05:47:43;;;;;;;16.52;5.03;;;;;;;;;;5080056;28;20028;-74
2021/04/23 05:50:11;;;;;;;11.88;5.35;;;;;;;;;;5085767;28;20547;-74
2021/04/23 05:52:37;;;;;;;14.13;5.57;;;;;;;;;;5085277;28;20035;-74
2021/04/23 05:55:04;;;;;;;21.20;5.97;;;;;;;;;;5087999;28;20028;-74
2021/04/23 05:57:30;;;;;;;20.25;5.45;;;;;;;;;;5082884;28;20039;-74
2021/04/23 05:59:56;;;;;;;15.82;5.90;;;;;;;;;;5079972;28;20066;-74
2021/04/23 06:02:23;;;;;;;15.95;5.50;;;;;;;;;;5087612;28;20032;-76
2021/04/23 06:04:49;;;;;;;20.38;5.65;;;;;;;;;;5087400;28;20537;-74
2021/04/23 06:07:15;;;;;;;17.88;6.18;;;;;;;;;;5083108;28;20044;-74
2021/04/23 06:09:41;;;;;;;13.80;5.95;;;;;;;;;;5082286;28;20043;-74
2021/04/23 06:12:07;;;;;;;15.27;5.55;;;;;;;;;;5076516;28;20035;-74
2021/04/23 06:14:33;;;;;;;30.58;6.57;;;;;;;;;;5083343;28;20027;-74
2021/04/23 06:17:04;;;;;;;16.77;4.90;;;;;;;;;;5086905;28;20016;-74
2021/04/23 06:19:30;;;;;;;15.30;5.32;;;;;;;;;;5084139;28;20569;-74
2021/04/23 06:21:56;;;;;;;13.85;4.55;;;;;;;;;;5080081;28;20131;-75
2021/04/23 06:24:22;;;;;;;14.30;6.38;;;;;;;;;;5080429;28;20023;-74
2021/04/23 06:26:48;;;;;;;18.92;5.78;;;;;;;;;;5083831;28;20115;-74
2021/04/23 06:29:14;;;;;;;14.70;4.72;;;;;;;;;;5085101;28;20077;-76
2021/04/23 06:31:41;;;;;;;18.50;4.70;;;;;;;;;;5089065;28;20028;-76
2021/04/23 06:34:07;;;;;;;18.67;3.72;;;;;;;;;;5087034;28;20016;-75
2021/04/23 06:36:33;;;;;;;18.15;4.50;;;;;;;;;;5086212;28;20020;-75
2021/04/23 06:38:59;;;;;;;18.52;4.10;;;;;;;;;;5078824;28;20449;-75
2021/04/23 06:41:25;;;;;;;10.88;3.05;;;;;;;;;;5085654;28;20498;-77
2021/04/23 06:43:51;;;;;;;18.42;4.10;;;;;;;;;;5083757;28;20056;-75
2021/04/23 06:46:17;;;;;;;15.07;3.42;;;;;;;;;;5088675;28;20381;-75
2021/04/23 06:48:47;;;;;;;19.63;4.45;;;;;;;;;;5082084;28;20012;-74
2021/04/23 06:51:13;;;;;;;15.20;4.15;;;;;;;;;;5084484;28;20029;-75
2021/04/23 06:53:39;;;;;;;21.40;4.18;;;;;;;;;;5086724;28;20024;-75
2021/04/23 06:56:05;;;;;;;19.67;4.13;;;;;;;;;;5084650;28;20020;-74
2021/04/23 06:58:31;;;;;;;12.95;3.72;;;;;;;;;;5081998;28;20032;-73
2021/04/23 07:00:57;;;;;;;17.90;4.22;;;;;;;;;;5083089;28;20020;-74
2021/04/23 07:03:24;;;;;;;15.65;3.72;;;;;;;;;;5087240;28;20042;-74
2021/04/23 07:05:50;;;;;;;25.15;4.65;;;;;;;;;;5090075;28;20170;-74
2021/04/23 07:08:16;;;;;;;14.82;4.13;;;;;;;;;;5086180;28;20024;-73
2021/04/23 07:10:42;;;;;;;10.05;3.85;;;;;;;;;;5086436;28;20027;-76
2021/04/23 07:13:09;;;;;;;14.02;3.58;;;;;;;;;;5083243;28;20030;-75
2021/04/23 07:15:35;;;;;;;33.38;6.00;;;;;;;;;;5088648;28;20024;-74
2021/04/23 07:18:02;;;;;;;16.98;4.65;;;;;;;;;;5088815;28;20526;-76
2021/04/23 07:20:29;;;;;;;12.32;3.67;;;;;;;;;;5087462;28;20073;-73
2021/04/23 07:22:55;;;;;;;15.85;3.25;;;;;;;;;;5088185;28;20554;-74
2021/04/23 07:25:22;;;;;;;17.30;4.25;;;;;;;;;;5088973;28;20090;-74
2021/04/23 07:27:48;;;;;;;11.23;3.63;;;;;;;;;;5090158;28;20040;-76
2021/04/23 07:30:16;;;;;;;10.55;3.00;;;;;;;;;;5089627;28;20506;-74
2021/04/23 07:32:42;;;;;;;13.88;3.70;;;;;;;;;;5090758;28;20051;-75
2021/04/23 07:35:09;;;;;;;13.13;3.85;;;;;;;;;;5089764;28;20107;-75
2021/04/23 07:37:35;;;;;;;12.38;4.60;;;;;;;;;;5089229;28;20627;-75
2021/04/23 07:40:01;;;;;;;18.40;4.68;;;;;;;;;;5090278;28;20028;-75
2021/04/23 07:42:28;;;;;;;15.35;4.25;;;;;;;;;;5090083;28;20020;-75
2021/04/23 07:44:55;;;;;;;12.10;3.88;;;;;;;;;;5092692;28;20069;-74
2021/04/23 07:47:21;;;;;;;11.15;3.97;;;;;;;;;;5086212;28;20013;-73
2021/04/23 07:49:48;;;;;;;14.75;3.88;;;;;;;;;;5081866;28;20032;-75
2021/04/23 07:52:14;;;;;;;12.93;5.65;;;;;;;;;;5073978;28;20028;-82
2021/04/23 07:54:40;;;;;;;15.65;5.43;;;;;;;;;;5077722;28;20024;-78
2021/04/23 07:57:08;;;;;;;18.83;6.00;;;;;;;;;;5090149;28;20031;-81
2021/04/23 07:59:34;;;;;;;18.23;4.93;;;;;;;;;;5083775;28;20043;-79
2021/04/23 08:02:02;;;;;;;22.27;5.18;;;;;;;;;;5086930;28;20020;-76
2021/04/23 08:04:28;;;;;;;18.50;4.22;;;;;;;;;;5083980;28;20031;-74
2021/04/23 08:06:54;;;;;;;12.63;4.75;;;;;;;;;;5090497;28;20031;-76
2021/04/23 08:09:20;;;;;;;19.10;5.70;;;;;;;;;;5084757;28;20016;-76
2021/04/23 08:11:46;;;;;;;21.38;5.32;;;;;;;;;;5086172;28;20066;-75
2021/04/23 08:14:12;;;;;;;16.33;4.50;;;;;;;;;;5085873;28;20030;-77
2021/04/23 08:16:38;;;;;;;11.30;4.20;;;;;;;;;;5088386;28;20031;-78
2021/04/23 08:19:05;;;;;;;13.75;4.13;;;;;;;;;;5082059;28;20020;-76
2021/04/23 08:21:31;;;;;;;10.45;3.38;;;;;;;;;;5073524;28;20032;-76
2021/04/23 08:23:57;;;;;;;13.02;5.45;;;;;;;;;;5091786;28;20099;-78
2021/04/23 08:26:24;;;;;;;15.38;5.15;;;;;;;;;;5084270;28;20024;-76
2021/04/23 08:28:51;;;;;;;15.60;4.88;;;;;;;;;;5085268;28;20352;-75
2021/04/23 08:31:17;;;;;;;20.27;4.97;;;;;;;;;;5088397;28;20016;-73
2021/04/23 08:33:43;;;;;;;16.77;4.78;;;;;;;;;;5089033;28;20032;-74
2021/04/23 08:36:09;;;;;;;14.27;5.80;;;;;;;;;;5085280;28;20081;-74
2021/04/23 08:38:35;;;;;;;20.75;5.45;;;;;;;;;;5089428;28;20020;-74
2021/04/23 08:41:01;;;;;;;17.60;6.15;;;;;;;;;;5084701;28;20020;-76
2021/04/23 08:43:28;;;;;;;19.25;6.97;;;;;;;;;;5087269;28;20089;-75
2021/04/23 08:45:54;;;;;;;15.93;5.95;;;;;;;;;;5088574;28;20031;-74
2021/04/23 08:48:21;;;;;;;20.73;6.20;;;;;;;;;;5089978;28;20466;-75
2021/04/23 08:50:48;;;;;;;11.52;4.68;;;;;;;;;;5086774;28;20020;-75
2021/04/23 08:53:15;;;;;;;14.02;4.28;;;;;;;;;;5088172;28;20055;-73
2021/04/23 08:55:41;;;;;;;18.50;6.18;;;;;;;;;;5088571;28;20035;-75
2021/04/23 08:58:07;;;;;;;18.92;5.50;;;;;;;;;;5086292;28;20039;-74
2021/04/23 09:00:33;;;;;;;19.50;4.82;;;;;;;;;;5087231;28;20032;-75
2021/04/23 09:02:59;;;;;;;13.23;4.90;;;;;;;;;;5089570;28;20398;-76
2021/04/23 09:05:25;;;;;;;14.60;3.85;;;;;;;;;;5076623;28;20028;-75
2021/04/23 09:07:59;;;;;;;18.85;4.97;;;;;;;;;;5085772;28;20774;-77
2021/04/23 09:10:25;;;;;;;21.63;4.13;;;;;;;;;;5087161;28;20047;-75
2021/04/23 09:13:24;;;;;;;9.93;3.30;;;;;;;;;;5087624;28;20034;-74
2021/04/23 09:15:50;;;;;;;15.48;4.47;;;;;;;;;;5043289;28;20120;-74
2021/04/23 09:18:21;;;;;;;15.82;3.85;;;;;;;;;;5086984;28;20474;-74
2021/04/23 09:20:48;;;;;;;13.93;3.58;;;;;;;;;;5086178;28;20162;-76
2021/04/23 09:23:22;;;;;;;12.43;3.40;;;;;;;;;;5086293;28;20417;-75
2021/04/23 09:25:51;;;;;;;13.40;3.08;;;;;;;;;;5086408;28;20169;-77
2021/04/23 09:28:32;;;;;;;8.13;2.22;;;;;;;;;;5085739;28;20432;-73
2021/04/23 09:30:58;;;;;;;10.32;3.60;;;;;;;;;;5079590;28;20483;-76
2021/04/23 09:33:25;;;;;;;10.35;2.80;;;;;;;;;;5086336;28;20036;-73
2021/04/23 09:35:52;;;;;;;10.35;2.08;;;;;;;;;;5074592;28;20170;-75
2021/04/23 09:38:18;;;;;;;11.13;3.67;;;;;;;;;;5080829;28;20036;-74
2021/04/23 09:40:45;;;;;;;15.13;3.13;;;;;;;;;;5084068;28;20028;-73
2021/04/23 09:43:11;;;;;;;7.90;2.92;;;;;;;;;;5079583;28;20036;-72
2021/04/23 09:45:51;;;;;;;13.38;2.90;;;;;;;;;;5080388;28;20028;-72
2021/04/23 09:48:21;;;;;;;13.50;2.80;;;;;;;;;;5080316;28;20024;-77
2021/04/23 09:50:47;;;;;;;12.48;3.33;;;;;;;;;;5078207;28;20497;-73
2021/04/23 09:53:13;;;;;;;12.88;4.18;;;;;;;;;;5079762;28;20474;-75
2021/04/23 09:55:39;;;;;;;18.35;4.72;;;;;;;;;;5080183;28;20043;-73
2021/04/23 09:58:07;;;;;;;10.60;3.60;;;;;;;;;;5080534;28;20046;-74
2021/04/23 10:00:35;;;;;;;12.00;3.88;;;;;;;;;;5073896;28;21905;-75
2021/04/23 10:03:03;;;;;;;19.33;4.55;;;;;;;;;;5067595;28;20669;-72
2021/04/23 10:05:36;;;;;;;15.65;4.78;;;;;;;;;;5072853;28;20054;-69
2021/04/23 10:08:05;;;;;;;17.70;5.22;;;;;;;;;;5080554;28;20025;-72
2021/04/23 10:10:31;;;;;;;12.73;5.00;;;;;;;;;;5081058;28;20696;-71
2021/04/23 10:13:03;;;;;;;18.40;5.28;;;;;;;;;;5083976;28;20019;-72
2021/04/23 10:15:30;;;;;;;23.23;4.40;;;;;;;;;;5093340;28;20032;-74
2021/04/23 10:17:58;;;;;;;11.30;4.85;;;;;;;;;;5087382;28;20071;-74
2021/04/23 10:20:29;;;;;;;15.57;5.50;;;;;;;;;;5066768;28;20089;-72
2021/04/23 10:22:56;;;;;;;13.02;6.07;;;;;;;;;;5079855;28;20105;-74
2021/04/23 10:25:23;;;;;;;14.68;5.07;;;;;;;;;;5078725;28;20077;-73
2021/04/23 10:27:50;;;;;;;17.02;6.47;;;;;;;;;;5074620;28;20034;-73
2021/04/23 10:30:17;;;;;;;18.70;5.20;;;;;;;;;;5074249;28;20031;-73
2021/04/23 10:32:46;;;;;;;16.50;5.78;;;;;;;;;;5079179;28;20115;-73
2021/04/23 10:35:13;;;;;;;16.50;6.18;;;;;;;;;;5080159;28;20035;-73
2021/04/23 10:37:39;;;;;;;19.75;6.60;;;;;;;;;;5082834;28;20032;-74
2021/04/23 10:40:05;;;;;;;19.20;6.38;;;;;;;;;;5077797;28;20082;-73
2021/04/23 10:42:51;;;;;;;19.42;7.43;;;;;;;;;;5077678;28;20071;-74
2021/04/23 10:45:26;;;;;;;19.60;6.72;;;;;;;;;;5078200;28;20046;-73
2021/04/23 10:47:55;;;;;;;25.02;8.55;;;;;;;;;;5074305;28;20028;-74
2021/04/23 10:50:23;;;;;;;19.48;7.32;;;;;;;;;;5063084;28;20386;-73
2021/04/23 10:52:58;;;;;;;20.20;7.65;;;;;;;;;;5079304;28;20086;-72
2021/04/23 10:55:36;;;;;;;17.80;6.55;;;;;;;;;;5082759;28;20017;-73
2021/04/23 10:58:02;;;;;;;15.90;6.85;;;;;;;;;;5083572;28;20046;-74
2021/04/23 11:00:32;;;;;;;22.02;7.03;;;;;;;;;;5074804;28;20036;-72
2021/04/23 11:03:17;;;;;;;14.98;5.78;;;;;;;;;;5077958;28;20040;-74
2021/04/23 11:05:44;;;;;;;17.60;4.78;;;;;;;;;;5079608;28;20051;-74
2021/04/23 11:08:11;;;;;;;19.83;4.85;;;;;;;;;;5080964;28;20023;-74
2021/04/23 11:10:55;;;;;;;21.02;5.32;;;;;;;;;;5078526;28;20615;-73
2021/04/23 11:13:22;;;;;;;11.55;5.25;;;;;;;;;;5086471;28;20040;-72
2021/04/23 11:16:08;;;;;;;18.60;4.03;;;;;;;;;;5086193;28;20510;-73
2021/04/23 11:18:34;;;;;;;20.90;5.90;;;;;;;;;;5085838;28;20035;-74
2021/04/23 11:21:19;;;;;;;15.25;4.10;;;;;;;;;;5085673;28;20036;-73
2021/04/23 11:24:03;;;;;;;16.75;3.40;;;;;;;;;;5078873;28;20138;-73
2021/04/23 11:26:48;;;;;;;19.23;4.65;;;;;;;;;;5079494;28;20066;-74
2021/04/23 11:29:14;;;;;;;13.57;3.83;;;;;;;;;;5079259;28;20050;-72
2021/04/23 11:31:59;;;;;;;13.90;3.60;;;;;;;;;;5082491;28;20056;-72
2021/04/23 11:34:34;;;;;;;16.58;3.20;;;;;;;;;;5081150;28;20027;-73
2021/04/23 11:37:04;;;;;;;13.15;3.40;;;;;;;;;;5079691;28;20486;-75
2021/04/23 11:39:31;;;;;;;7.00;2.63;;;;;;;;;;5075151;28;20016;-73
2021/04/23 11:42:15;;;;;;;12.95;2.92;;;;;;;;;;5078699;28;20032;-76
2021/04/23 11:45:05;;;;;;;11.52;2.95;;;;;;;;;;5081636;28;20043;-74
2021/04/23 11:47:36;;;;;;;11.70;2.55;;;;;;;;;;5076037;28;20030;-74
2021/04/23 11:50:02;;;;;;;11.57;2.93;;;;;;;;;;5078244;28;20056;-74
2021/04/23 11:52:29;;;;;;;15.25;2.55;;;;;;;;;;5081472;28;20307;-73
2021/04/23 11:54:55;;;;;;;12.38;2.97;;;;;;;;;;5084005;28;20035;-75
2021/04/23 11:57:26;;;;;;;13.15;2.38;;;;;;;;;;5082183;28;20024;-72
2021/04/23 11:59:58;;;;;;;13.30;3.13;;;;;;;;;;5079761;28;20706;-76
2021/04/23 12:02:44;;;;;;;16.17;2.92;;;;;;;;;;5084072;28;20067;-79
2021/04/23 12:05:25;;;;;;;18.50;2.97;;;;;;;;;;5083728;28;20020;-75
2021/04/23 12:07:53;;;;;;;14.93;2.67;;;;;;;;;;5088692;28;20028;-73
2021/04/23 12:10:20;;;;;;;12.23;2.28;;;;;;;;;;5081908;28;20060;-75
2021/04/23 12:12:47;;;;;;;10.45;2.15;;;;;;;;;;5080667;28;20032;-77
2021/04/23 12:15:20;;;;;;;12.00;2.47;;;;;;;;;;5080781;28;20217;-75
2021/04/23 12:17:46;;;;;;;14.43;3.88;;;;;;;;;;5085177;28;20053;-74
2021/04/23 12:20:22;;;;;;;15.13;2.33;;;;;;;;;;5089618;28;20063;-73
2021/04/23 12:22:49;;;;;;;8.40;1.85;;;;;;;;;;5087308;28;20110;-73
2021/04/23 12:25:18;;;;;;;15.77;2.78;;;;;;;;;;5086316;28;20027;-75
2021/04/23 12:27:45;;;;;;;10.85;1.80;;;;;;;;;;5085475;28;20031;-76
2021/04/23 12:30:11;;;;;;;7.72;2.42;;;;;;;;;;5081691;28;20024;-74
2021/04/23 12:32:37;;;;;;;8.13;1.95;;;;;;;;;;5089370;28;20066;-74
2021/04/23 12:35:03;;;;;;;13.45;2.40;;;;;;;;;;5089469;28;20035;-75
2021/04/23 12:37:29;;;;;;;10.73;2.30;;;;;;;;;;5081438;28;20032;-75
2021/04/23 12:39:55;;;;;;;7.47;2.00;;;;;;;;;;5082627;28;20491;-73
2021/04/23 12:42:26;;;;;;;10.18;2.35;;;;;;;;;;5090793;28;20016;-75
2021/04/23 12:44:58;;;;;;;11.90;2.30;;;;;;;;;;5091102;28;20069;-74
2021/04/23 12:47:24;;;;;;;8.52;1.77;;;;;;;;;;5092045;28;20024;-75
2021/04/23 12:49:51;;;;;;;11.27;2.00;;;;;;;;;;5085710;28;20052;-74
2021/04/23 12:52:18;;;;;;;5.75;1.70;;;;;;;;;;5088044;28;20035;-73
2021/04/23 12:54:46;;;;;;;10.63;2.45;;;;;;;;;;5086277;28;20031;-75
2021/04/23 12:57:17;;;;;;;10.68;1.73;;;;;;;;;;5086815;28;20024;-72
2021/04/23 12:59:43;;;;;;;10.07;2.47;;;;;;;;;;5078530;28;20021;-73
2021/04/23 13:02:11;;;;;;;8.00;2.13;;;;;;;;;;5084272;28;20494;-73
2021/04/23 13:04:37;;;;;;;11.90;2.08;;;;;;;;;;5087047;28;20019;-72
2021/04/23 13:07:10;;;;;;;8.15;1.95;;;;;;;;;;5086185;28;20013;-73
2021/04/23 13:09:36;;;;;;;11.52;2.00;;;;;;;;;;5080762;28;20075;-73
2021/04/23 13:12:21;;;;;;;10.88;2.10;;;;;;;;;;5088116;28;20547;-73
2021/04/23 13:14:48;;;;;;;7.47;2.08;;;;;;;;;;5083171;28;20522;-73
2021/04/23 13:17:14;;;;;;;9.88;2.55;;;;;;;;;;5085333;28;20062;-74
2021/04/23 13:19:41;;;;;;;11.07;2.67;;;;;;;;;;5085223;28;20040;-74
2021/04/23 13:22:26;;;;;;;13.57;2.70;;;;;;;;;;5079911;28;20028;-76
2021/04/23 13:25:12;;;;;;;14.15;2.53;;;;;;;;;;5085001;28;20032;-74
2021/04/23 13:27:42;;;;;;;9.63;2.33;;;;;;;;;;5079566;28;20079;-75
2021/04/23 13:30:10;;;;;;;7.18;1.70;;;;;;;;;;5079442;28;20438;-75
2021/04/23 13:32:52;;;;;;;11.43;2.03;;;;;;;;;;5081365;28;20039;-72
2021/04/23 13:35:27;;;;;;;14.60;2.38;;;;;;;;;;5079798;28;20024;-73
2021/04/23 13:37:54;;;;;;;8.65;2.10;;;;;;;;;;5079928;28;20032;-76
2021/04/23 13:40:26;;;;;;;10.95;2.78;;;;;;;;;;5081994;28;20036;-75
2021/04/23 13:42:52;;;;;;;12.82;2.78;;;;;;;;;;5081514;28;20032;-73
2021/04/23 13:45:18;;;;;;;13.27;2.45;;;;;;;;;;5078501;28;20127;-73
2021/04/23 13:47:44;;;;;;;11.60;2.40;;;;;;;;;;5079803;28;20081;-73
2021/04/23 13:50:11;;;;;;;11.73;2.17;;;;;;;;;;5077426;28;20094;-72
2021/04/23 13:52:41;;;;;;;13.20;2.47;;;;;;;;;;5080905;28;20036;-73
2021/04/23 13:55:08;;;;;;;12.60;2.28;;;;;;;;;;5077166;28;20065;-74
2021/04/23 13:57:34;;;;;;;8.68;1.73;;;;;;;;;;5078144;28;20844;-74
2021/04/23 14:00:00;;;;;;;11.32;2.53;;;;;;;;;;5075836;28;20028;-73
2021/04/23 14:02:27;;;;;;;7.57;1.73;;;;;;;;;;5077748;28;20031;-73
2021/04/23 14:04:53;;;;;;;10.02;2.22;;;;;;;;;;5081530;28;20081;-74
2021/04/23 14:07:20;;;;;;;8.27;1.85;;;;;;;;;;5075400;28;20035;-74
2021/04/23 14:09:47;;;;;;;8.68;1.75;;;;;;;;;;5083205;28;20020;-73
2021/04/23 14:12:16;;;;;;;11.38;2.20;;;;;;;;;;5088770;28;20070;-76
2021/04/23 14:14:42;;;;;;;12.70;2.20;;;;;;;;;;5087720;28;20024;-73
2021/04/23 14:17:15;;;;;;;15.55;2.05;;;;;;;;;;5084948;28;20024;-72
2021/04/23 14:19:43;;;;;;;8.23;1.98;;;;;;;;;;5085879;28;20071;-73
2021/04/23 14:22:10;;;;;;;12.93;2.33;;;;;;;;;;5085508;28;20093;-72
2021/04/23 14:24:36;;;;;;;9.30;1.70;;;;;;;;;;5085619;28;20063;-72
2021/04/23 14:27:02;;;;;;;12.48;2.72;;;;;;;;;;5087670;28;20020;-73
2021/04/23 14:29:28;;;;;;;8.85;1.90;;;;;;;;;;5077529;28;20034;-77
2021/04/23 14:31:55;;;;;;;7.03;1.85;;;;;;;;;;5087348;28;20032;-77
2021/04/23 14:34:22;;;;;;;13.02;3.30;;;;;;;;;;5084961;28;20048;-78
2021/04/23 14:36:48;;;;;;;7.15;2.10;;;;;;;;;;5086080;28;20031;-77